createdAt,value
2022-07-29T00:00:15.846Z,1.77
2022-07-29T00:01:19.791Z,2.30
2022-07-29T00:02:21.565Z,1.60
2022-07-29T00:03:24.286Z,1.97
2022-07-29T00:04:25.936Z,1.80
2022-07-29T00:05:28.780Z,2.20
2022-07-29T00:06:31.853Z,1.93
2022-07-29T00:07:34.449Z,2.13
2022-07-29T00:08:36.028Z,2.10
2022-07-29T00:09:50.407Z,1.90
2022-07-29T00:10:53.834Z,2.07
2022-07-29T00:11:59.172Z,1.93
2022-07-29T00:13:00.952Z,2.10
2022-07-29T00:14:03.556Z,1.80
2022-07-29T00:15:06.250Z,2.10
2022-07-29T00:16:08.853Z,2.07
2022-07-29T00:17:13.674Z,2.40
2022-07-29T00:18:21.693Z,2.23
2022-07-29T00:19:23.332Z,2.00
2022-07-29T00:20:25.936Z,1.93
2022-07-29T00:21:27.671Z,1.93
2022-07-29T00:22:31.681Z,2.50
2022-07-29T00:23:36.716Z,1.97
2022-07-29T00:24:39.583Z,2.50
2022-07-29T00:25:41.261Z,2.40
2022-07-29T00:26:43.862Z,1.70
2022-07-29T00:27:46.684Z,2.33
2022-07-29T00:28:49.292Z,1.90
2022-07-29T00:29:51.106Z,2.20
2022-07-29T00:30:53.738Z,2.57
2022-07-29T00:31:55.756Z,2.77
2022-07-29T00:32:58.369Z,2.20
2022-07-29T00:34:00.040Z,2.27
2022-07-29T00:35:20.190Z,2.60
2022-07-29T00:36:22.243Z,2.57
2022-07-29T00:37:25.097Z,1.77
2022-07-29T00:38:28.145Z,2.43
2022-07-29T00:39:31.315Z,2.43
2022-07-29T00:40:32.913Z,2.60
2022-07-29T00:41:35.477Z,2.13
2022-07-29T00:42:43.632Z,2.40
2022-07-29T00:43:46.713Z,2.13
2022-07-29T00:44:48.325Z,2.00
2022-07-29T00:45:50.933Z,2.03
2022-07-29T00:46:52.890Z,2.40
2022-07-29T00:47:55.570Z,2.33
2022-07-29T00:48:58.217Z,2.30
2022-07-29T00:49:59.910Z,2.63
2022-07-29T00:51:04.979Z,2.73
2022-07-29T00:52:08.363Z,2.00
2022-07-29T00:53:13.758Z,2.60
2022-07-29T00:54:17.135Z,2.07
2022-07-29T00:55:20.049Z,2.97
2022-07-29T00:56:21.710Z,2.30
2022-07-29T00:57:24.424Z,2.37
2022-07-29T00:58:27.707Z,2.60
2022-07-29T00:59:35.268Z,1.90
2022-07-29T01:00:42.203Z,2.67
2022-07-29T01:01:44.458Z,2.00
2022-07-29T01:02:49.313Z,2.10
2022-07-29T01:03:52.682Z,2.60
2022-07-29T01:04:54.758Z,2.23
2022-07-29T01:05:59.778Z,1.93
2022-07-29T01:07:03.191Z,2.10
2022-07-29T01:08:06.920Z,2.20
2022-07-29T01:09:10.516Z,2.20
2022-07-29T01:10:21.983Z,2.10
2022-07-29T01:11:24.149Z,2.20
2022-07-29T01:12:34.950Z,2.80
2022-07-29T01:13:37.554Z,2.30
2022-07-29T01:14:45.388Z,2.17
2022-07-29T01:15:53.538Z,2.23
2022-07-29T01:17:02.540Z,2.83
2022-07-29T01:18:13.068Z,2.47
2022-07-29T01:19:35.181Z,2.40
2022-07-29T01:21:00.464Z,2.50
2022-07-29T01:22:25.530Z,2.30
2022-07-29T01:23:55.950Z,1.97
2022-07-29T01:25:17.044Z,2.13
2022-07-29T01:26:44.661Z,2.20
2022-07-29T01:28:02.174Z,2.23
2022-07-29T01:29:12.828Z,2.20
2022-07-29T01:30:15.703Z,2.50
2022-07-29T01:31:25.341Z,2.23
2022-07-29T01:32:33.498Z,1.90
2022-07-29T01:33:51.099Z,2.67
2022-07-29T01:34:57.854Z,2.37
2022-07-29T01:36:02.291Z,2.50
2022-07-29T01:37:16.533Z,2.47
2022-07-29T01:38:23.064Z,2.37
2022-07-29T01:39:33.380Z,1.77
2022-07-29T01:40:41.654Z,2.30
2022-07-29T01:41:51.285Z,1.63
2022-07-29T01:42:58.360Z,2.00
2022-07-29T01:44:04.851Z,2.00
2022-07-29T01:45:13.540Z,2.30
2022-07-29T01:46:22.014Z,2.30
2022-07-29T01:47:28.521Z,1.97
2022-07-29T01:48:41.126Z,2.00
2022-07-29T01:49:48.544Z,2.10
2022-07-29T01:50:59.401Z,2.00
2022-07-29T01:52:06.697Z,2.20
2022-07-29T01:53:12.550Z,2.37
2022-07-29T01:54:20.860Z,2.27
2022-07-29T01:55:29.270Z,2.20
2022-07-29T01:56:34.663Z,1.87
2022-07-29T01:57:39.929Z,2.13
2022-07-29T01:58:44.747Z,2.23
2022-07-29T01:59:49.171Z,1.90
2022-07-29T02:00:53.216Z,2.90
2022-07-29T02:01:59.185Z,1.70
2022-07-29T02:03:06.345Z,2.03
2022-07-29T02:04:10.879Z,2.00
2022-07-29T02:05:16.754Z,2.37
2022-07-29T02:06:23.395Z,2.30
2022-07-29T02:07:28.553Z,2.10
2022-07-29T02:08:31.432Z,2.50
2022-07-29T02:09:36.611Z,2.00
2022-07-29T02:10:41.239Z,1.83
2022-07-29T02:11:49.530Z,2.90
2022-07-29T02:12:51.382Z,2.60
2022-07-29T02:13:55.598Z,2.10
2022-07-29T02:15:01.784Z,2.90
2022-07-29T02:16:08.593Z,3.27
2022-07-29T02:17:13.153Z,2.00
2022-07-29T02:18:19.604Z,2.87
2022-07-29T02:19:24.263Z,2.03
2022-07-29T02:20:28.083Z,2.60
2022-07-29T02:21:32.998Z,2.23
2022-07-29T02:22:38.902Z,2.30
2022-07-29T02:23:51.599Z,2.57
2022-07-29T02:24:55.777Z,2.90
2022-07-29T02:25:58.762Z,2.17
2022-07-29T02:27:03.431Z,2.27
2022-07-29T02:28:07.520Z,2.70
2022-07-29T02:29:11.694Z,2.30
2022-07-29T02:30:14.120Z,2.23
2022-07-29T02:31:20.952Z,3.17
2022-07-29T02:32:25.389Z,2.97
2022-07-29T02:33:29.745Z,2.93
2022-07-29T02:34:34.019Z,3.17
2022-07-29T02:35:36.754Z,2.80
2022-07-29T02:36:39.585Z,3.50
2022-07-29T02:37:45.057Z,3.30
2022-07-29T02:38:53.613Z,3.57
2022-07-29T02:39:57.508Z,2.90
2022-07-29T02:41:00.985Z,3.40
2022-07-29T02:42:07.400Z,3.53
2022-07-29T02:43:10.695Z,3.40
2022-07-29T02:44:15.100Z,3.03
2022-07-29T02:45:17.155Z,2.70
2022-07-29T02:46:29.039Z,3.77
2022-07-29T02:47:41.962Z,3.47
2022-07-29T02:48:56.512Z,2.27
2022-07-29T02:50:04.054Z,2.73
2022-07-29T02:51:12.727Z,2.70
2022-07-29T02:52:41.799Z,2.90
2022-07-29T02:53:46.352Z,2.23
2022-07-29T02:54:56.700Z,2.80
2022-07-29T02:56:00.328Z,2.80
2022-07-29T02:57:08.272Z,2.57
2022-07-29T02:58:16.533Z,2.40
2022-07-29T02:59:23.970Z,2.57
2022-07-29T03:00:29.743Z,2.60
2022-07-29T03:01:36.026Z,2.47
2022-07-29T03:02:39.232Z,2.50
2022-07-29T03:03:45.769Z,2.20
2022-07-29T03:04:52.003Z,2.43
2022-07-29T03:05:55.995Z,2.40
2022-07-29T03:07:01.295Z,2.30
2022-07-29T03:08:06.104Z,2.10
2022-07-29T03:09:13.363Z,2.07
2022-07-29T03:10:15.846Z,2.43
2022-07-29T03:11:19.652Z,1.90
2022-07-29T03:12:43.574Z,2.23
2022-07-29T03:13:45.896Z,2.30
2022-07-29T03:14:49.595Z,2.40
2022-07-29T03:15:51.785Z,2.53
2022-07-29T03:16:56.101Z,2.33
2022-07-29T03:17:58.209Z,2.00
2022-07-29T03:19:01.529Z,2.20
2022-07-29T03:20:03.853Z,2.13
2022-07-29T03:21:06.580Z,2.30
2022-07-29T03:22:08.339Z,2.20
2022-07-29T03:23:11.028Z,2.00
2022-07-29T03:24:25.923Z,1.80
2022-07-29T03:25:28.995Z,1.97
2022-07-29T03:26:30.734Z,1.90
2022-07-29T03:27:33.703Z,1.90
2022-07-29T03:28:35.364Z,2.00
2022-07-29T03:29:39.512Z,2.10
2022-07-29T03:30:41.611Z,1.97
2022-07-29T03:31:47.138Z,2.03
2022-07-29T03:32:53.725Z,2.50
2022-07-29T03:33:55.560Z,2.93
2022-07-29T03:34:58.091Z,2.27
2022-07-29T03:35:59.967Z,2.47
2022-07-29T03:37:07.073Z,3.07
2022-07-29T03:38:09.108Z,2.83
2022-07-29T03:39:14.528Z,2.60
2022-07-29T03:40:23.172Z,2.40
2022-07-29T03:41:27.136Z,2.60
2022-07-29T03:42:34.493Z,2.40
2022-07-29T03:43:39.607Z,2.60
2022-07-29T03:44:53.508Z,3.00
2022-07-29T03:45:57.255Z,2.80
2022-07-29T03:47:03.731Z,2.40
2022-07-29T03:48:09.678Z,2.70
2022-07-29T03:49:14.491Z,2.60
2022-07-29T03:50:17.064Z,2.97
2022-07-29T03:51:19.785Z,2.80
2022-07-29T03:52:37.523Z,2.80
2022-07-29T03:53:39.141Z,2.60
2022-07-29T03:54:41.813Z,2.90
2022-07-29T03:55:46.095Z,2.90
2022-07-29T03:56:51.162Z,2.70
2022-07-29T03:57:53.526Z,2.87
2022-07-29T03:58:57.155Z,2.90
2022-07-29T04:00:00.536Z,3.00
2022-07-29T04:01:02.801Z,2.50
2022-07-29T04:02:07.133Z,4.00
2022-07-29T04:03:11.776Z,2.77
2022-07-29T04:04:15.238Z,2.80
2022-07-29T04:05:19.457Z,3.03
2022-07-29T04:06:22.096Z,3.17
2022-07-29T04:07:23.723Z,3.20
2022-07-29T04:08:26.383Z,2.67
2022-07-29T04:09:28.019Z,2.97
2022-07-29T04:10:32.204Z,3.37
2022-07-29T04:11:57.089Z,3.10
2022-07-29T04:13:00.596Z,3.30
2022-07-29T04:14:02.647Z,3.43
2022-07-29T04:15:05.641Z,3.70
2022-07-29T04:16:07.332Z,3.70
2022-07-29T04:17:09.982Z,3.50
2022-07-29T04:18:13.001Z,3.40
2022-07-29T04:19:15.749Z,3.57
2022-07-29T04:20:17.609Z,3.70
2022-07-29T04:21:20.170Z,4.03
2022-07-29T04:22:21.762Z,3.53
2022-07-29T04:23:25.593Z,4.23
2022-07-29T04:24:27.813Z,4.20
2022-07-29T04:25:30.513Z,4.10
2022-07-29T04:26:32.155Z,3.63
2022-07-29T04:27:34.686Z,4.20
2022-07-29T04:28:36.407Z,4.60
2022-07-29T04:29:57.032Z,4.70
2022-07-29T04:30:59.240Z,4.77
2022-07-29T04:32:01.809Z,6.30
2022-07-29T04:33:05.523Z,6.20
2022-07-29T04:34:09.932Z,6.80
2022-07-29T04:35:11.711Z,6.13
2022-07-29T04:36:28.831Z,5.83
2022-07-29T04:37:31.249Z,5.93
2022-07-29T04:38:33.949Z,6.37
2022-07-29T04:39:35.508Z,5.57
2022-07-29T04:40:38.497Z,5.30
2022-07-29T04:41:40.413Z,4.47
2022-07-29T04:42:46.657Z,4.20
2022-07-29T04:43:49.593Z,4.40
2022-07-29T04:44:52.435Z,3.80
2022-07-29T04:45:54.276Z,3.40
2022-07-29T04:46:58.500Z,3.27
2022-07-29T04:48:00.107Z,3.70
2022-07-29T04:49:02.799Z,3.23
2022-07-29T04:50:08.008Z,3.00
2022-07-29T04:51:10.645Z,3.33
2022-07-29T04:52:12.197Z,2.63
2022-07-29T04:53:14.791Z,3.37
2022-07-29T04:54:16.906Z,3.10
2022-07-29T04:55:19.811Z,3.33
2022-07-29T04:56:21.620Z,4.13
2022-07-29T04:57:24.609Z,4.40
2022-07-29T04:58:27.335Z,3.10
2022-07-29T04:59:29.107Z,3.50
2022-07-29T05:00:33.257Z,3.47
2022-07-29T05:01:35.538Z,3.23
2022-07-29T05:02:38.230Z,3.23
2022-07-29T05:03:40.851Z,3.83
2022-07-29T05:04:42.572Z,3.13
2022-07-29T05:05:46.493Z,3.50
2022-07-29T05:06:49.300Z,3.20
2022-07-29T05:07:50.851Z,3.70
2022-07-29T05:08:53.435Z,3.63
2022-07-29T05:09:57.744Z,3.20
2022-07-29T05:11:11.638Z,3.63
2022-07-29T05:12:14.593Z,3.73
2022-07-29T05:13:17.313Z,3.77
2022-07-29T05:14:19.488Z,3.40
2022-07-29T05:15:22.636Z,3.90
2022-07-29T05:16:24.348Z,4.10
2022-07-29T05:17:27.455Z,3.67
2022-07-29T05:18:29.339Z,4.30
2022-07-29T05:19:32.491Z,3.47
2022-07-29T05:20:35.125Z,3.30
2022-07-29T05:21:39.130Z,3.70
2022-07-29T05:22:40.744Z,3.70
2022-07-29T05:23:43.265Z,4.00
2022-07-29T05:24:44.910Z,4.60
2022-07-29T05:25:47.947Z,3.87
2022-07-29T05:26:49.560Z,3.70
2022-07-29T05:27:52.176Z,3.53
2022-07-29T05:28:54.790Z,3.90
2022-07-29T05:29:57.373Z,3.93
2022-07-29T05:30:59.051Z,3.40
2022-07-29T05:32:01.567Z,3.80
2022-07-29T05:33:03.236Z,3.63
2022-07-29T05:34:05.961Z,3.40
2022-07-29T05:35:08.714Z,4.53
2022-07-29T05:36:11.269Z,3.90
2022-07-29T05:37:14.372Z,3.80
2022-07-29T05:38:17.033Z,4.10
2022-07-29T05:39:18.878Z,3.33
2022-07-29T05:40:22.263Z,4.40
2022-07-29T05:41:24.192Z,4.00
2022-07-29T05:42:27.130Z,3.63
2022-07-29T05:43:30.164Z,3.60
2022-07-29T05:44:32.787Z,3.67
2022-07-29T05:45:34.604Z,3.77
2022-07-29T05:46:52.062Z,4.00
2022-07-29T05:47:53.640Z,3.43
2022-07-29T05:48:56.767Z,4.00
2022-07-29T05:49:58.611Z,4.10
2022-07-29T05:51:01.142Z,4.40
2022-07-29T05:52:02.937Z,4.83
2022-07-29T05:53:18.944Z,3.90
2022-07-29T05:54:22.864Z,3.50
2022-07-29T05:55:24.784Z,3.40
2022-07-29T05:56:27.615Z,3.30
2022-07-29T05:57:29.291Z,3.67
2022-07-29T05:58:31.863Z,4.07
2022-07-29T05:59:37.704Z,3.43
2022-07-29T06:00:39.552Z,3.20
2022-07-29T06:01:42.606Z,3.40
2022-07-29T06:02:44.323Z,3.17
2022-07-29T06:03:46.998Z,3.80
2022-07-29T06:04:49.669Z,3.93
2022-07-29T06:05:52.311Z,4.07
2022-07-29T06:06:53.871Z,3.33
2022-07-29T06:07:56.407Z,3.70
2022-07-29T06:08:59.308Z,3.83
2022-07-29T06:10:02.400Z,3.80
2022-07-29T06:11:05.320Z,3.70
2022-07-29T06:12:08.113Z,4.20
2022-07-29T06:13:09.889Z,3.70
2022-07-29T06:14:12.608Z,3.30
2022-07-29T06:15:14.518Z,4.27
2022-07-29T06:16:28.803Z,4.20
2022-07-29T06:17:32.957Z,3.53
2022-07-29T06:18:34.663Z,3.50
2022-07-29T06:19:37.444Z,4.27
2022-07-29T06:20:39.291Z,3.87
2022-07-29T06:21:44.437Z,4.00
2022-07-29T06:22:46.272Z,3.67
2022-07-29T06:23:49.026Z,4.00
2022-07-29T06:24:51.955Z,2.93
2022-07-29T06:25:54.701Z,3.70
2022-07-29T06:26:56.860Z,3.80
2022-07-29T06:27:59.930Z,3.10
2022-07-29T06:29:02.546Z,3.40
2022-07-29T06:30:07.570Z,3.40
2022-07-29T06:31:09.326Z,3.67
2022-07-29T06:32:13.005Z,4.03
2022-07-29T06:33:17.870Z,3.80
2022-07-29T06:34:20.640Z,3.70
2022-07-29T06:35:37.768Z,3.80
2022-07-29T06:36:42.540Z,3.23
2022-07-29T06:37:44.489Z,3.83
2022-07-29T06:38:51.403Z,3.43
2022-07-29T06:40:10.119Z,3.53
2022-07-29T06:41:13.476Z,3.23
2022-07-29T06:42:15.168Z,3.60
2022-07-29T06:43:17.721Z,4.30
2022-07-29T06:44:20.289Z,3.80
2022-07-29T06:45:23.051Z,3.97
2022-07-29T06:46:24.858Z,4.30
2022-07-29T06:47:27.448Z,3.83
2022-07-29T06:48:29.638Z,4.10
2022-07-29T06:49:32.319Z,4.00
2022-07-29T06:50:33.951Z,3.87
2022-07-29T06:51:36.909Z,4.10
2022-07-29T06:52:38.671Z,3.77
2022-07-29T06:53:58.087Z,4.00
2022-07-29T06:55:03.082Z,3.70
2022-07-29T06:56:09.136Z,4.20
2022-07-29T06:57:11.714Z,3.50
2022-07-29T06:58:15.069Z,3.97
2022-07-29T06:59:17.683Z,3.87
2022-07-29T07:00:19.425Z,3.90
2022-07-29T07:01:22.142Z,4.40
2022-07-29T07:02:24.293Z,3.63
2022-07-29T07:03:27.371Z,3.33
2022-07-29T07:04:29.945Z,3.70
2022-07-29T07:05:31.581Z,4.13
2022-07-29T07:06:34.238Z,4.63
2022-07-29T07:07:35.868Z,3.90
2022-07-29T07:08:38.566Z,4.20
2022-07-29T07:09:41.010Z,3.60
2022-07-29T07:10:45.253Z,4.33
2022-07-29T07:11:49.632Z,3.93
2022-07-29T07:12:51.897Z,4.13
2022-07-29T07:13:57.025Z,5.10
2022-07-29T07:17:25.175Z,4.13
2022-07-29T07:18:28.666Z,4.13
2022-07-29T07:19:30.277Z,3.70
2022-07-29T07:20:33.277Z,4.00
2022-07-29T07:21:36.320Z,3.97
2022-07-29T07:22:39.037Z,3.20
2022-07-29T07:23:41.694Z,4.50
2022-07-29T07:24:43.287Z,3.90
2022-07-29T07:25:47.285Z,4.10
2022-07-29T07:26:49.885Z,4.10
2022-07-29T07:27:52.664Z,4.50
2022-07-29T07:28:55.530Z,4.83
2022-07-29T07:29:57.626Z,4.43
2022-07-29T07:31:00.284Z,5.10
2022-07-29T07:32:02.993Z,4.07
2022-07-29T07:33:07.290Z,4.10
2022-07-29T07:34:09.059Z,3.70
2022-07-29T07:35:12.666Z,4.50
2022-07-29T07:36:14.448Z,4.80
2022-07-29T07:37:17.004Z,4.27
2022-07-29T07:38:19.697Z,5.17
2022-07-29T07:39:21.381Z,4.17
2022-07-29T07:40:24.241Z,3.80
2022-07-29T07:41:28.325Z,4.97
2022-07-29T07:42:34.174Z,4.67
2022-07-29T07:43:37.130Z,4.50
2022-07-29T07:44:57.338Z,4.43
2022-07-29T07:46:01.948Z,4.00
2022-07-29T07:47:12.318Z,4.97
2022-07-29T07:48:15.268Z,4.27
2022-07-29T07:49:17.014Z,3.80
2022-07-29T07:50:19.651Z,4.40
2022-07-29T07:51:21.477Z,4.20
2022-07-29T07:52:24.096Z,4.47
2022-07-29T07:53:25.821Z,4.00
2022-07-29T07:54:28.534Z,3.87
2022-07-29T07:55:47.558Z,4.90
2022-07-29T07:56:54.090Z,3.90
2022-07-29T07:57:57.182Z,4.47
2022-07-29T07:58:58.875Z,5.00
2022-07-29T08:00:02.102Z,3.73
2022-07-29T08:01:07.220Z,4.37
2022-07-29T08:02:11.355Z,4.17
2022-07-29T08:03:17.153Z,4.00
2022-07-29T08:04:25.015Z,4.57
2022-07-29T08:05:30.174Z,4.17
2022-07-29T08:06:32.080Z,4.17
2022-07-29T08:07:34.797Z,3.70
2022-07-29T08:08:38.527Z,4.37
2022-07-29T08:09:40.189Z,3.90
2022-07-29T08:10:56.723Z,3.90
2022-07-29T08:11:59.916Z,3.77
2022-07-29T08:13:04.035Z,4.37
2022-07-29T08:14:05.635Z,3.70
2022-07-29T08:15:09.727Z,4.20
2022-07-29T08:16:15.814Z,3.97
2022-07-29T08:17:18.438Z,4.07
2022-07-29T08:18:20.237Z,3.40
2022-07-29T08:19:22.981Z,4.47
2022-07-29T08:20:27.283Z,4.10
2022-07-29T08:21:28.907Z,4.57
2022-07-29T08:22:31.508Z,4.40
2022-07-29T08:23:46.831Z,4.43
2022-07-29T08:24:55.637Z,4.43
2022-07-29T08:25:57.461Z,4.20
2022-07-29T08:27:01.362Z,4.13
2022-07-29T08:28:03.262Z,4.77
2022-07-29T08:29:05.849Z,4.33
2022-07-29T08:30:08.453Z,4.13
2022-07-29T08:31:11.080Z,3.97
2022-07-29T08:32:12.847Z,4.40
2022-07-29T08:33:16.877Z,4.50
2022-07-29T08:34:19.692Z,4.57
2022-07-29T08:35:35.104Z,3.87
2022-07-29T08:36:38.062Z,4.10
2022-07-29T08:37:40.665Z,4.40
2022-07-29T08:38:42.244Z,3.80
2022-07-29T08:39:44.848Z,4.30
2022-07-29T08:40:47.317Z,4.80
2022-07-29T08:41:56.888Z,4.10
2022-07-29T08:43:04.981Z,4.83
2022-07-29T08:44:09.254Z,4.60
2022-07-29T08:45:11.439Z,4.17
2022-07-29T08:46:15.059Z,4.03
2022-07-29T08:47:18.078Z,3.97
2022-07-29T08:48:23.122Z,4.23
2022-07-29T08:49:26.281Z,4.27
2022-07-29T08:50:28.027Z,5.07
2022-07-29T08:51:32.566Z,4.20
2022-07-29T08:52:37.593Z,4.00
2022-07-29T08:53:43.999Z,3.90
2022-07-29T08:54:47.270Z,5.30
2022-07-29T08:55:50.964Z,4.10
2022-07-29T08:56:54.897Z,4.33
2022-07-29T08:57:58.237Z,3.90
2022-07-29T08:59:05.427Z,4.50
2022-07-29T09:00:11.610Z,4.00
2022-07-29T09:01:19.564Z,3.80
2022-07-29T09:02:28.249Z,4.30
2022-07-29T09:03:32.653Z,4.70
2022-07-29T09:04:37.901Z,4.80
2022-07-29T09:05:47.513Z,4.97
2022-07-29T09:06:53.782Z,4.37
2022-07-29T09:07:56.239Z,3.90
2022-07-29T09:09:01.120Z,4.40
2022-07-29T09:10:05.667Z,4.37
2022-07-29T09:11:08.362Z,5.60
2022-07-29T09:12:12.338Z,4.67
2022-07-29T09:13:13.907Z,4.27
2022-07-29T09:14:17.923Z,4.80
2022-07-29T09:15:19.561Z,4.60
2022-07-29T09:16:43.715Z,4.33
2022-07-29T09:17:48.469Z,4.30
2022-07-29T09:18:50.095Z,5.53
2022-07-29T09:19:53.385Z,5.50
2022-07-29T09:21:13.703Z,4.30
2022-07-29T09:22:31.041Z,5.60
2022-07-29T09:23:32.645Z,5.03
2022-07-29T09:24:40.525Z,4.70
2022-07-29T09:25:42.655Z,5.17
2022-07-29T09:26:47.629Z,5.40
2022-07-29T09:27:52.619Z,5.00
2022-07-29T09:28:54.396Z,5.40
2022-07-29T09:30:06.185Z,4.80
2022-07-29T09:31:09.245Z,4.73
2022-07-29T09:32:12.364Z,5.60
2022-07-29T09:33:14.931Z,4.87
2022-07-29T09:34:18.071Z,5.00
2022-07-29T09:35:23.030Z,4.33
2022-07-29T09:36:24.878Z,4.70
2022-07-29T09:37:28.591Z,4.57
2022-07-29T09:38:31.397Z,4.90
2022-07-29T09:39:36.909Z,5.20
2022-07-29T09:40:38.684Z,4.27
2022-07-29T09:41:50.190Z,4.30
2022-07-29T09:42:53.772Z,4.10
2022-07-29T09:43:57.976Z,4.37
2022-07-29T09:45:01.895Z,5.10
2022-07-29T09:46:13.841Z,4.63
2022-07-29T09:47:17.470Z,4.77
2022-07-29T09:48:20.930Z,4.40
2022-07-29T09:49:23.598Z,4.53
2022-07-29T09:50:37.266Z,4.43
2022-07-29T09:51:41.260Z,4.27
2022-07-29T09:52:49.211Z,4.93
2022-07-29T09:53:53.115Z,4.80
2022-07-29T09:55:07.137Z,5.07
2022-07-29T09:56:11.561Z,4.93
2022-07-29T09:57:30.361Z,4.67
2022-07-29T09:58:34.539Z,4.80
2022-07-29T09:59:36.281Z,4.60
2022-07-29T10:00:56.434Z,4.40
2022-07-29T10:01:58.656Z,4.07
2022-07-29T10:03:03.754Z,5.40
2022-07-29T10:04:06.717Z,5.17
2022-07-29T10:05:21.095Z,4.93
2022-07-29T10:06:22.817Z,4.70
2022-07-29T10:07:26.225Z,4.80
2022-07-29T10:08:27.985Z,4.53
2022-07-29T10:09:30.631Z,4.43
2022-07-29T10:10:35.135Z,4.53
2022-07-29T10:11:49.642Z,4.70
2022-07-29T10:12:55.296Z,6.10
2022-07-29T10:13:57.136Z,5.00
2022-07-29T10:15:00.023Z,4.60
2022-07-29T10:16:03.681Z,4.40
2022-07-29T10:17:08.217Z,4.37
2022-07-29T10:18:11.810Z,4.80
2022-07-29T10:19:14.668Z,4.57
2022-07-29T10:20:18.040Z,4.07
2022-07-29T10:21:34.742Z,4.70
2022-07-29T10:22:54.727Z,3.67
2022-07-29T10:24:01.106Z,3.97
2022-07-29T10:25:04.518Z,4.17
2022-07-29T10:26:07.141Z,4.20
2022-07-29T10:27:10.525Z,4.40
2022-07-29T10:28:16.256Z,4.27
2022-07-29T10:29:18.669Z,3.53
2022-07-29T10:30:25.716Z,4.17
2022-07-29T10:31:37.697Z,3.93
2022-07-29T10:32:54.314Z,5.23
2022-07-29T10:34:09.760Z,3.77
2022-07-29T10:35:33.126Z,4.50
2022-07-29T10:36:48.519Z,3.80
2022-07-29T10:38:06.287Z,4.57
2022-07-29T10:39:22.373Z,3.70
2022-07-29T10:40:49.100Z,3.77
2022-07-29T10:42:03.648Z,4.13
2022-07-29T10:43:18.465Z,4.30
2022-07-29T10:44:24.725Z,4.13
2022-07-29T10:45:27.012Z,3.93
2022-07-29T10:46:38.226Z,3.90
2022-07-29T10:47:41.777Z,3.27
2022-07-29T10:49:08.049Z,3.43
2022-07-29T10:50:16.915Z,3.40
2022-07-29T10:51:19.623Z,4.23
2022-07-29T10:52:26.594Z,3.60
2022-07-29T10:53:48.332Z,3.63
2022-07-29T10:54:52.527Z,4.33
2022-07-29T10:55:55.266Z,4.40
2022-07-29T10:57:12.531Z,3.67
2022-07-29T10:58:20.796Z,3.20
2022-07-29T10:59:32.310Z,3.47
2022-07-29T11:00:39.194Z,3.80
2022-07-29T11:03:10.536Z,3.57
2022-07-29T11:04:12.918Z,3.50
2022-07-29T11:05:19.933Z,4.27
2022-07-29T11:06:26.883Z,3.47
2022-07-29T11:07:41.606Z,4.97
2022-07-29T11:09:20.166Z,4.00
2022-07-29T11:10:26.967Z,3.47
2022-07-29T11:11:35.178Z,4.20
2022-07-29T11:12:50.581Z,4.33
2022-07-29T11:13:54.093Z,3.83
2022-07-29T11:14:58.939Z,3.60
2022-07-29T11:16:01.582Z,3.80
2022-07-29T11:17:06.979Z,3.50
2022-07-29T11:18:14.942Z,3.37
2022-07-29T11:19:26.698Z,3.10
2022-07-29T11:20:34.813Z,3.60
2022-07-29T11:21:53.680Z,4.03
2022-07-29T11:22:58.530Z,4.37
2022-07-29T11:24:14.749Z,3.73
2022-07-29T11:25:51.013Z,3.03
2022-07-29T11:26:45.089Z,3.70
2022-07-29T11:27:49.728Z,3.43
2022-07-29T11:28:56.129Z,3.10
2022-07-29T11:30:02.294Z,3.10
2022-07-29T11:31:06.323Z,3.60
2022-07-29T11:32:22.563Z,3.77
2022-07-29T11:33:54.423Z,3.73
2022-07-29T11:35:17.414Z,4.07
2022-07-29T11:36:20.001Z,3.57
2022-07-29T11:37:30.967Z,4.23
2022-07-29T11:38:33.877Z,4.43
2022-07-29T11:39:37.686Z,4.57
2022-07-29T11:40:40.373Z,4.93
2022-07-29T11:41:44.251Z,4.50
2022-07-29T11:42:48.160Z,4.40
2022-07-29T11:43:55.885Z,5.23
2022-07-29T11:44:58.889Z,4.97
2022-07-29T11:46:07.049Z,4.53
2022-07-29T11:47:13.454Z,4.80
2022-07-29T11:48:29.411Z,6.53
2022-07-29T11:49:35.011Z,6.50
2022-07-29T11:50:44.257Z,7.23
2022-07-29T11:51:52.588Z,5.50
2022-07-29T11:52:54.973Z,5.80
2022-07-29T11:54:04.471Z,6.17
2022-07-29T11:55:09.901Z,6.50
2022-07-29T11:56:17.198Z,5.77
2022-07-29T11:57:21.340Z,6.57
2022-07-29T11:58:25.121Z,5.63
2022-07-29T11:59:49.578Z,5.87
2022-07-29T12:02:37.292Z,6.43
2022-07-29T12:03:39.303Z,6.47
2022-07-29T12:04:49.519Z,5.17
2022-07-29T12:05:53.256Z,6.20
2022-07-29T12:06:56.194Z,7.10
2022-07-29T12:08:07.205Z,5.10
2022-07-29T12:09:18.550Z,5.87
2022-07-29T12:10:29.984Z,5.17
2022-07-29T12:11:33.537Z,5.83
2022-07-29T12:12:35.407Z,5.00
2022-07-29T12:13:41.030Z,5.27
2022-07-29T12:14:46.477Z,5.57
2022-07-29T12:15:59.723Z,5.00
2022-07-29T12:17:01.985Z,5.97
2022-07-29T12:18:18.321Z,5.40
2022-07-29T12:19:20.275Z,4.60
2022-07-29T12:20:27.415Z,5.80
2022-07-29T12:21:31.053Z,4.90
2022-07-29T12:22:34.978Z,5.57
2022-07-29T12:23:37.580Z,5.23
2022-07-29T12:24:44.902Z,7.20
2022-07-29T12:25:50.004Z,5.70
2022-07-29T12:26:52.299Z,6.40
2022-07-29T12:28:02.005Z,5.60
2022-07-29T12:29:11.431Z,6.03
2022-07-29T12:30:17.608Z,6.77
2022-07-29T12:31:42.835Z,6.20
2022-07-29T12:32:47.061Z,5.90
2022-07-29T12:33:55.805Z,6.70
2022-07-29T12:35:00.973Z,6.53
2022-07-29T12:36:06.949Z,6.60
2022-07-29T12:37:11.077Z,7.20
2022-07-29T12:38:14.178Z,5.90
2022-07-29T12:39:18.051Z,6.97
2022-07-29T12:40:21.826Z,7.10
2022-07-29T12:41:24.475Z,6.30
2022-07-29T12:42:26.235Z,6.13
2022-07-29T12:43:28.898Z,6.13
2022-07-29T12:44:44.858Z,5.83
2022-07-29T12:45:49.212Z,5.77
2022-07-29T12:47:03.897Z,5.77
2022-07-29T12:48:09.420Z,5.60
2022-07-29T12:49:23.175Z,6.30
2022-07-29T12:50:26.572Z,5.20
2022-07-29T12:51:33.213Z,6.00
2022-07-29T12:52:35.672Z,5.23
2022-07-29T12:53:38.835Z,5.40
2022-07-29T12:54:48.026Z,5.33
2022-07-29T12:55:53.236Z,4.73
2022-07-29T12:57:00.442Z,4.53
2022-07-29T12:58:03.458Z,5.07
2022-07-29T12:59:15.420Z,4.70
2022-07-29T13:00:18.642Z,4.90
2022-07-29T13:01:21.767Z,4.73
2022-07-29T13:02:23.717Z,5.20
2022-07-29T13:03:26.418Z,4.67
2022-07-29T13:04:32.761Z,4.37
2022-07-29T13:05:44.553Z,4.60
2022-07-29T13:06:49.789Z,4.27
2022-07-29T13:07:55.791Z,3.87
2022-07-29T13:09:08.892Z,3.93
2022-07-29T13:10:14.188Z,4.30
2022-07-29T13:11:29.425Z,4.40
2022-07-29T13:12:33.311Z,4.97
2022-07-29T13:13:34.922Z,5.60
2022-07-29T13:14:39.898Z,4.60
2022-07-29T13:15:43.178Z,5.70
2022-07-29T13:17:07.092Z,5.10
2022-07-29T13:18:30.537Z,4.47
2022-07-29T13:19:38.707Z,4.47
2022-07-29T13:20:41.297Z,4.40
2022-07-29T13:21:43.458Z,4.47
2022-07-29T13:22:50.187Z,4.80
2022-07-29T13:23:51.796Z,4.50
2022-07-29T13:24:56.760Z,4.40
2022-07-29T13:26:06.505Z,4.87
2022-07-29T13:27:09.223Z,4.37
2022-07-29T13:28:12.591Z,4.40
2022-07-29T13:29:14.737Z,3.90
2022-07-29T13:30:17.496Z,5.63
2022-07-29T13:31:19.283Z,4.67
2022-07-29T13:32:28.735Z,4.77
2022-07-29T13:33:31.174Z,4.30
2022-07-29T13:34:33.701Z,4.80
2022-07-29T13:35:39.923Z,4.80
2022-07-29T13:36:41.930Z,3.90
2022-07-29T13:37:44.556Z,5.13
2022-07-29T13:38:46.219Z,4.80
2022-07-29T13:39:52.798Z,4.33
2022-07-29T13:40:55.672Z,4.83
2022-07-29T13:41:57.794Z,4.07
2022-07-29T13:43:00.521Z,4.30
2022-07-29T13:44:02.096Z,3.90
2022-07-29T13:45:05.941Z,4.60
2022-07-29T13:46:07.632Z,4.57
2022-07-29T13:47:10.648Z,4.07
2022-07-29T13:48:13.248Z,4.73
2022-07-29T13:49:15.884Z,3.70
2022-07-29T13:50:18.535Z,4.43
2022-07-29T13:51:22.501Z,4.03
2022-07-29T13:52:24.132Z,4.40
2022-07-29T13:53:28.716Z,4.67
2022-07-29T13:54:30.355Z,4.60
2022-07-29T13:55:32.943Z,4.33
2022-07-29T13:56:35.974Z,5.70
2022-07-29T13:57:38.490Z,5.43
2022-07-29T13:58:41.142Z,4.97
2022-07-29T13:59:43.466Z,4.10
2022-07-29T14:00:47.522Z,5.40
2022-07-29T14:01:50.111Z,4.43
2022-07-29T14:02:51.701Z,5.20
2022-07-29T14:03:54.309Z,5.60
2022-07-29T14:04:58.627Z,4.20
2022-07-29T14:06:00.935Z,3.87
2022-07-29T14:07:05.736Z,4.80
2022-07-29T14:08:08.499Z,4.50
2022-07-29T14:09:10.101Z,4.63
2022-07-29T14:10:14.340Z,5.47
2022-07-29T14:11:18.836Z,4.83
2022-07-29T14:12:21.908Z,4.90
2022-07-29T14:13:25.170Z,5.07
2022-07-29T14:14:28.469Z,4.90
2022-07-29T14:15:31.039Z,4.80
2022-07-29T14:16:32.663Z,3.90
2022-07-29T14:17:35.521Z,4.63
2022-07-29T14:18:37.208Z,4.50
2022-07-29T14:19:40.017Z,4.60
2022-07-29T14:20:43.131Z,4.43
2022-07-29T14:21:45.544Z,4.50
2022-07-29T14:22:49.823Z,5.50
2022-07-29T14:23:52.967Z,4.90
2022-07-29T14:24:56.425Z,4.83
2022-07-29T14:25:58.124Z,4.80
2022-07-29T14:27:00.926Z,4.50
2022-07-29T14:28:02.907Z,4.53
2022-07-29T14:29:05.733Z,3.20
2022-07-29T14:30:09.897Z,4.27
2022-07-29T14:31:11.550Z,5.03
2022-07-29T14:32:15.768Z,4.60
2022-07-29T14:33:19.039Z,5.43
2022-07-29T14:34:20.711Z,5.30
2022-07-29T14:35:25.504Z,4.80
2022-07-29T14:36:28.418Z,4.70